WIF2TJ ENEV-ENAN
Flight info
| Callsign | WIF2TJ |
|---|---|
| Flight time | 0h 17m |
| Altitude | 12000 |
| Route | EVANI |
| Aircraft | DH8B/M-SDFGR/S |
Departure
| Time | 2026-05-05 06:18 |
|---|---|
| Airport | Harstad/Narvik Airport (ENEV) |
Arrival
| Time | 2026-05-05 06:35 |
|---|---|
| Airport | Andøya Airport, Andenes (ENAN) |
| Time | Latitude | Longitude | Altitude | Speed | Heading |
|---|---|---|---|---|---|
| 2026-05-05 06:12 | 68.48975 | 16.68539 | 90 ft | 0 kts | 357° |
| 2026-05-05 06:16 | 68.48977 | 16.68537 | 90 ft | 1 kts | 341° |
| 2026-05-05 06:16 | 68.48938 | 16.68504 | 88 ft | 12 kts | 180° |
| 2026-05-05 06:16 | 68.48890 | 16.68363 | 87 ft | 15 kts | 268° |
| 2026-05-05 06:16 | 68.48964 | 16.68210 | 84 ft | 18 kts | 358° |
| 2026-05-05 06:17 | 68.49096 | 16.68195 | 84 ft | 21 kts | 357° |
| 2026-05-05 06:17 | 68.49173 | 16.68091 | 85 ft | 9 kts | 269° |
| 2026-05-05 06:17 | 68.49172 | 16.67909 | 89 ft | 12 kts | 268° |
| 2026-05-05 06:17 | 68.49106 | 16.67836 | 90 ft | 42 kts | 176° |
| 2026-05-05 06:18 | 68.48434 | 16.67903 | 102 ft | 138 kts | 178° |
| 2026-05-05 06:18 | 68.47395 | 16.68010 | 694 ft | 152 kts | 178° |
| 2026-05-05 06:18 | 68.46297 | 16.68183 | 1432 ft | 165 kts | 180° |
| 2026-05-05 06:18 | 68.45115 | 16.68171 | 2179 ft | 173 kts | 193° |
| 2026-05-05 06:19 | 68.44103 | 16.66576 | 2887 ft | 172 kts | 237° |
| 2026-05-05 06:19 | 68.43791 | 16.63497 | 3637 ft | 172 kts | 269° |
| 2026-05-05 06:19 | 68.43549 | 16.60266 | 4403 ft | 177 kts | 252° |
| 2026-05-05 06:19 | 68.43218 | 16.57086 | 5133 ft | 178 kts | 271° |
| 2026-05-05 06:20 | 68.43641 | 16.54006 | 5888 ft | 178 kts | 315° |
| 2026-05-05 06:20 | 68.44736 | 16.52582 | 6634 ft | 178 kts | 351° |
| 2026-05-05 06:20 | 68.45973 | 16.52716 | 7410 ft | 179 kts | 9° |
| 2026-05-05 06:20 | 68.47217 | 16.53030 | 8191 ft | 179 kts | 358° |
| 2026-05-05 06:21 | 68.48458 | 16.52841 | 8991 ft | 182 kts | 358° |
| 2026-05-05 06:21 | 68.49734 | 16.52816 | 9769 ft | 184 kts | 0° |
| 2026-05-05 06:21 | 68.51026 | 16.52745 | 10528 ft | 186 kts | 359° |
| 2026-05-05 06:21 | 68.52329 | 16.52664 | 11280 ft | 190 kts | 0° |
| 2026-05-05 06:22 | 68.53725 | 16.52628 | 11573 ft | 215 kts | 360° |
| 2026-05-05 06:22 | 68.55296 | 16.52529 | 11602 ft | 240 kts | 359° |
| 2026-05-05 06:22 | 68.57034 | 16.52449 | 11682 ft | 255 kts | 0° |
| 2026-05-05 06:22 | 68.58874 | 16.52374 | 11626 ft | 268 kts | 359° |
| 2026-05-05 06:23 | 68.60763 | 16.52263 | 11733 ft | 257 kts | 360° |
| 2026-05-05 06:23 | 68.62465 | 16.52182 | 12249 ft | 242 kts | 0° |
| 2026-05-05 06:23 | 68.64180 | 16.52116 | 12105 ft | 255 kts | 360° |
| 2026-05-05 06:23 | 68.66017 | 16.52013 | 11713 ft | 268 kts | 360° |
| 2026-05-05 06:24 | 68.67878 | 16.51920 | 11674 ft | 266 kts | 0° |
| 2026-05-05 06:24 | 68.69726 | 16.51842 | 11655 ft | 263 kts | 0° |
| 2026-05-05 06:24 | 68.71553 | 16.51748 | 11637 ft | 262 kts | 360° |
| 2026-05-05 06:24 | 68.73348 | 16.51658 | 11622 ft | 261 kts | 359° |
| 2026-05-05 06:25 | 68.75162 | 16.51576 | 11615 ft | 260 kts | 359° |
| 2026-05-05 06:25 | 68.76983 | 16.51483 | 11606 ft | 260 kts | 359° |
| 2026-05-05 06:25 | 68.78773 | 16.51399 | 11599 ft | 260 kts | 359° |
| 2026-05-05 06:25 | 68.80580 | 16.51307 | 11593 ft | 260 kts | 359° |
| 2026-05-05 06:26 | 68.82387 | 16.51220 | 11587 ft | 259 kts | 360° |
| 2026-05-05 06:26 | 68.84196 | 16.51137 | 11580 ft | 259 kts | 359° |
| 2026-05-05 06:26 | 68.86001 | 16.51037 | 11582 ft | 259 kts | 359° |
| 2026-05-05 06:26 | 68.87806 | 16.50961 | 11569 ft | 259 kts | 360° |
| 2026-05-05 06:27 | 68.89586 | 16.50866 | 11568 ft | 258 kts | 359° |
| 2026-05-05 06:27 | 68.93191 | 16.50697 | 11565 ft | 259 kts | 359° |
| 2026-05-05 06:27 | 68.94975 | 16.50595 | 11566 ft | 258 kts | 359° |
| 2026-05-05 06:28 | 68.96779 | 16.50516 | 11564 ft | 259 kts | 360° |
| 2026-05-05 06:28 | 68.98584 | 16.50425 | 11565 ft | 259 kts | 359° |
| 2026-05-05 06:28 | 69.00387 | 16.50324 | 11572 ft | 258 kts | 360° |
| 2026-05-05 06:28 | 69.02164 | 16.50252 | 11571 ft | 258 kts | 360° |
| 2026-05-05 06:29 | 69.03968 | 16.50154 | 11568 ft | 258 kts | 359° |
| 2026-05-05 06:29 | 69.05768 | 16.50058 | 11567 ft | 258 kts | 360° |
| 2026-05-05 06:29 | 69.06963 | 16.49999 | 11568 ft | 258 kts | 357° |
| 2026-05-05 06:29 | 69.09190 | 16.47731 | 11548 ft | 262 kts | 326° |
| 2026-05-05 06:30 | 69.10652 | 16.44624 | 11555 ft | 263 kts | 326° |
| 2026-05-05 06:30 | 69.11681 | 16.42780 | 11553 ft | 263 kts | 331° |
| 2026-05-05 06:30 | 69.13827 | 16.39600 | 11552 ft | 263 kts | 334° |
| 2026-05-05 06:30 | 69.15429 | 16.37059 | 11565 ft | 264 kts | 330° |
| 2026-05-05 06:31 | 69.16468 | 16.35252 | 11566 ft | 264 kts | 329° |
| 2026-05-05 06:31 | 69.17931 | 16.32877 | 11506 ft | 220 kts | 333° |
| 2026-05-05 06:31 | 69.19249 | 16.30816 | 10492 ft | 218 kts | 331° |
| 2026-05-05 06:31 | 69.20554 | 16.28625 | 9428 ft | 216 kts | 332° |
| 2026-05-05 06:32 | 69.21846 | 16.26529 | 8318 ft | 213 kts | 333° |
| 2026-05-05 06:32 | 69.22991 | 16.23949 | 7234 ft | 214 kts | 310° |
| 2026-05-05 06:32 | 69.23518 | 16.20012 | 6182 ft | 221 kts | 278° |
| 2026-05-05 06:32 | 69.23219 | 16.15771 | 5122 ft | 224 kts | 246° |
| 2026-05-05 06:33 | 69.22437 | 16.12001 | 4080 ft | 221 kts | 245° |
| 2026-05-05 06:33 | 69.22130 | 16.07987 | 3436 ft | 198 kts | 281° |
| 2026-05-05 06:33 | 69.22620 | 16.04756 | 2943 ft | 173 kts | 319° |
| 2026-05-05 06:33 | 69.23619 | 16.03378 | 2433 ft | 154 kts | 3° |
| 2026-05-05 06:34 | 69.24554 | 16.04309 | 1968 ft | 140 kts | 40° |
| 2026-05-05 06:34 | 69.25307 | 16.06280 | 1613 ft | 153 kts | 45° |
| 2026-05-05 06:34 | 69.26047 | 16.08386 | 1202 ft | 144 kts | 38° |
| 2026-05-05 06:34 | 69.26809 | 16.10071 | 724 ft | 134 kts | 35° |
| 2026-05-05 06:35 | 69.27562 | 16.11501 | 363 ft | 128 kts | 32° |
| 2026-05-05 06:35 | 69.28298 | 16.12777 | 87 ft | 120 kts | 31° |
| 2026-05-05 06:35 | 69.28899 | 16.13823 | 30 ft | 75 kts | 31° |
| 2026-05-05 06:35 | 69.29244 | 16.14396 | 25 ft | 28 kts | 4° |
| 2026-05-05 06:36 | 69.29435 | 16.14095 | 30 ft | 32 kts | 329° |
| 2026-05-05 06:36 | 69.29589 | 16.13837 | 29 ft | 25 kts | 329° |
| 2026-05-05 06:36 | 69.29735 | 16.13596 | 26 ft | 22 kts | 330° |
| 2026-05-05 06:36 | 69.29855 | 16.13399 | 27 ft | 20 kts | 330° |
| 2026-05-05 06:37 | 69.29995 | 16.13169 | 27 ft | 26 kts | 329° |
| 2026-05-05 06:37 | 69.30162 | 16.12897 | 27 ft | 29 kts | 329° |
| 2026-05-05 06:37 | 69.30316 | 16.12641 | 30 ft | 24 kts | 330° |
| 2026-05-05 06:37 | 69.30454 | 16.12414 | 31 ft | 22 kts | 329° |
| 2026-05-05 06:38 | 69.30574 | 16.12212 | 33 ft | 19 kts | 329° |
| 2026-05-05 06:38 | 69.30687 | 16.12093 | 34 ft | 17 kts | 22° |
| 2026-05-05 06:38 | 69.30783 | 16.12344 | 26 ft | 20 kts | 19° |
| 2026-05-05 06:38 | 69.30906 | 16.12427 | 30 ft | 16 kts | 30° |
| 2026-05-05 06:39 | 69.30979 | 16.12436 | 26 ft | 11 kts | 339° |
| 2026-05-05 06:39 | 69.31008 | 16.12413 | 29 ft | 0 kts | 8° |